| time (UTC) | temp F | wind direction | speed MPH | gust MPH | rain 1hr in | rain 24hr in | rain mn in | humidity % | barometer mb |
| 20260831232241 | 62 | 341 | 0.0 | 3.0 | 0.00 | 0.23 | 0.06 | 77 | 1015.5 |
| 20260831231420 | 63 | 284 | 0.0 | 3.0 | 0.00 | 0.23 | 0.06 | 78 | 1015.5 |
| 20260831230906 | 63 | 273 | 0.0 | 2.0 | 0.00 | 0.23 | 0.06 | 77 | 1015.7 |
| 20260831230400 | 64 | 301 | 0.0 | 1.0 | 0.00 | 0.23 | 0.06 | 77 | 1015.8 |
| 20260831225858 | 64 | 297 | 0.0 | 1.0 | 0.00 | 0.23 | 0.06 | 74 | 1015.3 |
| 20260831225354 | 64 | 217 | 0.0 | 1.0 | 0.00 | 0.23 | 0.06 | 72 | 1015.5 |
| 20260831224853 | 65 | 290 | 0.0 | 1.0 | 0.00 | 0.23 | 0.06 | 71 | 1015.2 |
| 20260831224350 | 65 | 350 | 0.0 | 1.0 | 0.00 | 0.23 | 0.06 | 70 | 1015.0 |
| 20260831223848 | 66 | 318 | 0.0 | 1.0 | 0.00 | 0.23 | 0.06 | 69 | 1015.3 |
| 20260831223350 | 66 | 297 | 0.0 | 2.0 | 0.00 | 0.23 | 0.06 | 68 | 1015.3 |
| 20260831222845 | 66 | 257 | 0.0 | 2.0 | 0.00 | 0.23 | 0.06 | 67 | 1015.3 |
| 20260831222345 | 67 | 272 | 1.0 | 2.0 | 0.00 | 0.23 | 0.06 | 65 | 1015.0 |
| 20260831222010 | 67 | 259 | 2.0 | 2.0 | 0.00 | 0.23 | 0.06 | 64 | 1015.2 |
| 20260831221232 | 68 | 230 | 2.0 | 2.0 | 0.00 | 0.23 | 0.06 | 62 | 1015.1 |
| 20260831220345 | 68 | 267 | 2.0 | 3.0 | 0.00 | 0.23 | 0.06 | 62 | 1015.3 |
| 20260831215836 | 68 | 277 | 1.0 | 3.0 | 0.00 | 0.23 | 0.06 | 62 | 1015.1 |
| 20260831215341 | 68 | 250 | 0.0 | 3.0 | 0.00 | 0.23 | 0.06 | 61 | 1015.4 |
| 20260831214836 | 68 | 276 | 2.0 | 6.0 | 0.00 | 0.23 | 0.06 | 60 | 1015.3 |
| 20260831214338 | 69 | 285 | 2.0 | 6.0 | 0.00 | 0.23 | 0.06 | 60 | 1015.5 |
| 20260831213828 | 69 | 237 | 3.0 | 5.0 | 0.00 | 0.23 | 0.06 | 58 | 1015.3 |
| 20260831213325 | 70 | 322 | 2.0 | 8.0 | 0.00 | 0.23 | 0.06 | 58 | 1015.2 |
| 20260831212834 | 69 | 271 | 4.0 | 8.0 | 0.00 | 0.23 | 0.06 | 58 | 1015.4 |
| 20260831212319 | 70 | 295 | 4.0 | 6.0 | 0.00 | 0.23 | 0.06 | 57 | 1015.2 |
| 20260831211819 | 70 | 268 | 4.0 | 6.0 | 0.00 | 0.23 | 0.06 | 56 | 1015.4 |
| 20260831211320 | 70 | 246 | 3.0 | 7.0 | 0.00 | 0.23 | 0.06 | 57 | 1015.3 |
| 20260831210818 | 70 | 269 | 5.0 | 8.0 | 0.00 | 0.23 | 0.06 | 56 | 1015.2 |
| 20260831210315 | 70 | 297 | 3.0 | 8.0 | 0.00 | 0.23 | 0.06 | 57 | 1015.5 |
| 20260831210157 | 71 | 263 | 4.0 | 8.0 | 0.00 | 0.23 | 0.06 | 54 | 1015.4 |
| 20260831205315 | 70 | 259 | 4.0 | 11.0 | 0.00 | 0.23 | 0.06 | 56 | 1015.4 |
| 20260831205206 | 70 | 268 | 4.0 | 11.0 | 0.00 | 0.23 | 0.06 | 55 | 1015.2 |
| 20260831204311 | 71 | 277 | 4.0 | 9.0 | 0.00 | 0.23 | 0.06 | 56 | 1015.2 |
| 20260831203806 | 70 | 264 | 4.0 | 9.0 | 0.00 | 0.23 | 0.06 | 56 | 1015.3 |
| 20260831203306 | 70 | 259 | 6.0 | 9.0 | 0.00 | 0.23 | 0.06 | 55 | 1015.4 |
| 20260831203155 | 71 | 233 | 7.0 | 9.0 | 0.00 | 0.23 | 0.06 | 56 | 1015.5 |
| 20260831202306 | 70 | 252 | 4.0 | 8.0 | 0.00 | 0.23 | 0.06 | 57 | 1015.4 |
| 20260831201759 | 71 | 244 | 6.0 | 8.0 | 0.00 | 0.23 | 0.06 | 57 | 1015.3 |
| 20260831201301 | 71 | 265 | 5.0 | 9.0 | 0.00 | 0.23 | 0.06 | 56 | 1015.3 |
| 20260831200759 | 71 | 296 | 6.0 | 9.0 | 0.00 | 0.23 | 0.06 | 55 | 1015.2 |
| 20260831200259 | 71 | 237 | 4.0 | 12.0 | 0.00 | 0.23 | 0.06 | 57 | 1015.3 |
| 20260831195800 | 70 | 231 | 5.0 | 12.0 | 0.00 | 0.23 | 0.06 | 56 | 1015.4 |
| 20260831195306 | 71 | 261 | 6.0 | 9.0 | 0.00 | 0.23 | 0.06 | 55 | 1015.4 |
| 20260831195122 | 71 | 268 | 7.0 | 10.0 | 0.00 | 0.23 | 0.06 | 56 | 1015.5 |
| 20260831194242 | 70 | 237 | 5.0 | 11.0 | 0.00 | 0.23 | 0.06 | 57 | 1015.6 |
| 20260831194121 | 70 | 230 | 6.0 | 12.0 | 0.00 | 0.23 | 0.06 | 58 | 1015.7 |
| 20260831193235 | 70 | 277 | 2.0 | 12.0 | 0.00 | 0.23 | 0.06 | 59 | 1015.7 |
| 20260831192735 | 70 | 279 | 5.0 | 9.0 | 0.00 | 0.23 | 0.06 | 57 | 1015.6 |
| 20260831192233 | 70 | 280 | 5.0 | 10.0 | 0.00 | 0.23 | 0.06 | 56 | 1015.5 |
| 20260831191732 | 70 | 294 | 3.0 | 10.0 | 0.00 | 0.23 | 0.06 | 58 | 1015.4 |
| 20260831191228 | 70 | 264 | 6.0 | 10.0 | 0.00 | 0.23 | 0.06 | 57 | 1015.5 |
| 20260831190723 | 71 | 241 | 5.0 | 10.0 | 0.00 | 0.23 | 0.06 | 56 | 1015.4 |
| 20260831190607 | 71 | 276 | 5.0 | 9.0 | 0.00 | 0.23 | 0.06 | 55 | 1015.3 |
| 20260831185723 | 70 | 308 | 6.0 | 14.0 | 0.00 | 0.23 | 0.06 | 58 | 1015.3 |
| 20260831185211 | 70 | 246 | 8.0 | 14.0 | 0.00 | 0.23 | 0.06 | 56 | 1015.2 |
| 20260831184707 | 71 | 272 | 8.0 | 14.0 | 0.00 | 0.23 | 0.06 | 57 | 1015.3 |
| 20260831184219 | 71 | 298 | 4.0 | 11.0 | 0.00 | 0.23 | 0.06 | 58 | 1015.2 |
| 20260831183657 | 70 | 151 | 2.0 | 12.0 | 0.00 | 0.23 | 0.06 | 62 | 1015.1 |
| 20260831183159 | 70 | 219 | 7.0 | 12.0 | 0.00 | 0.23 | 0.06 | 56 | 1015.2 |
| 20260831182659 | 70 | 258 | 4.0 | 11.0 | 0.00 | 0.23 | 0.06 | 56 | 1015.3 |
| 20260831182154 | 70 | 291 | 3.0 | 10.0 | 0.00 | 0.23 | 0.06 | 59 | 1015.2 |
| 20260831181653 | 71 | 274 | 5.0 | 8.0 | 0.00 | 0.23 | 0.06 | 56 | 1015.2 |
| 20260831181601 | 70 | 291 | 4.0 | 8.0 | 0.00 | 0.23 | 0.06 | 58 | 1015.2 |
| 20260831180652 | 70 | 306 | 4.0 | 8.0 | 0.00 | 0.23 | 0.06 | 57 | 1015.1 |
| 20260831180147 | 70 | 269 | 4.0 | 9.0 | 0.00 | 0.23 | 0.06 | 59 | 1015.1 |
| 20260831175651 | 69 | 314 | 6.0 | 9.0 | 0.00 | 0.23 | 0.06 | 60 | 1015.1 |
| 20260831175640 | 69 | 270 | 6.0 | 11.0 | 0.00 | 0.23 | 0.06 | 62 | 1015.0 |
| 20260831175047 | 69 | 286 | 5.0 | 11.0 | 0.00 | 0.23 | 0.06 | 60 | 1015.1 |
| 20260831174139 | 69 | 231 | 4.0 | 14.0 | 0.00 | 0.23 | 0.06 | 60 | 1015.0 |
| 20260831174033 | 69 | 302 | 7.0 | 14.0 | 0.00 | 0.23 | 0.06 | 60 | 1015.0 |
| 20260831173134 | 69 | 269 | 4.0 | 15.0 | 0.00 | 0.23 | 0.06 | 64 | 1015.1 |
| 20260831172632 | 69 | 286 | 5.0 | 15.0 | 0.00 | 0.23 | 0.06 | 60 | 1015.1 |
| 20260831172129 | 69 | 299 | 9.0 | 12.0 | 0.00 | 0.23 | 0.06 | 59 | 1015.0 |
| 20260831171629 | 69 | 274 | 6.0 | 13.0 | 0.00 | 0.23 | 0.06 | 59 | 1015.0 |
| 20260831171128 | 69 | 283 | 7.0 | 13.0 | 0.00 | 0.23 | 0.06 | 57 | 1014.9 |
| 20260831170624 | 69 | 310 | 7.0 | 13.0 | 0.00 | 0.23 | 0.06 | 58 | 1015.1 |
| 20260831170135 | 69 | 297 | 4.0 | 13.0 | 0.00 | 0.23 | 0.06 | 61 | 1015.0 |
| 20260831165621 | 69 | 239 | 5.0 | 11.0 | 0.00 | 0.23 | 0.06 | 59 | 1015.0 |
| 20260831165117 | 69 | 273 | 7.0 | 14.0 | 0.00 | 0.23 | 0.06 | 58 | 1015.2 |
| 20260831164610 | 68 | 293 | 7.0 | 14.0 | 0.00 | 0.23 | 0.06 | 60 | 1015.1 |
| 20260831164104 | 68 | 278 | 6.0 | 11.0 | 0.00 | 0.23 | 0.06 | 60 | 1014.9 |
| 20260831163601 | 68 | 290 | 3.0 | 11.0 | 0.00 | 0.23 | 0.06 | 60 | 1014.9 |
| 20260831163059 | 68 | 278 | 4.0 | 11.0 | 0.00 | 0.23 | 0.06 | 62 | 1014.9 |
| 20260831163015 | 68 | 264 | 4.0 | 11.0 | 0.00 | 0.23 | 0.06 | 60 | 1015.0 |
| 20260831162051 | 68 | 305 | 5.0 | 11.0 | 0.00 | 0.23 | 0.06 | 59 | 1014.8 |
| 20260831161543 | 67 | 295 | 3.0 | 11.0 | 0.00 | 0.23 | 0.06 | 59 | 1014.8 |
| 20260831161045 | 67 | 303 | 6.0 | 11.0 | 0.00 | 0.23 | 0.06 | 62 | 1014.8 |
| 20260831160540 | 67 | 272 | 4.0 | 9.0 | 0.00 | 0.23 | 0.06 | 60 | 1014.7 |
| 20260831160040 | 67 | 305 | 4.0 | 12.0 | 0.00 | 0.23 | 0.06 | 61 | 1014.9 |
| 20260831155538 | 67 | 294 | 5.0 | 12.0 | 0.00 | 0.23 | 0.06 | 58 | 1014.9 |
| 20260831155033 | 68 | 296 | 6.0 | 11.0 | 0.00 | 0.23 | 0.06 | 60 | 1014.8 |
| 20260831154531 | 67 | 316 | 3.0 | 11.0 | 0.00 | 0.23 | 0.06 | 62 | 1014.8 |
| 20260831154029 | 68 | 268 | 5.0 | 10.0 | 0.00 | 0.23 | 0.06 | 59 | 1014.9 |
| 20260831153530 | 67 | 210 | 5.0 | 10.0 | 0.00 | 0.23 | 0.06 | 62 | 1015.0 |
| 20260831153016 | 67 | 256 | 3.0 | 7.0 | 0.00 | 0.23 | 0.06 | 62 | 1015.0 |
| 20260831152509 | 67 | 300 | 2.0 | 7.0 | 0.00 | 0.23 | 0.06 | 63 | 1015.0 |
| 20260831152007 | 67 | 290 | 5.0 | 9.0 | 0.00 | 0.23 | 0.06 | 62 | 1015.0 |
| 20260831151459 | 66 | 253 | 7.0 | 9.0 | 0.00 | 0.23 | 0.06 | 64 | 1015.0 |
| 20260831150959 | 66 | 279 | 4.0 | 9.0 | 0.00 | 0.23 | 0.06 | 65 | 1014.8 |
| 20260831150456 | 66 | 252 | 3.0 | 7.0 | 0.00 | 0.23 | 0.06 | 63 | 1015.0 |
| 20260831145953 | 66 | 266 | 2.0 | 7.0 | 0.00 | 0.23 | 0.06 | 64 | 1015.1 |
| 20260831145450 | 66 | 237 | 4.0 | 7.0 | 0.00 | 0.23 | 0.06 | 63 | 1015.1 |
| 20260831144944 | 66 | 292 | 3.0 | 8.0 | 0.00 | 0.23 | 0.06 | 66 | 1015.2 |
| 20260831144444 | 66 | 300 | 3.0 | 9.0 | 0.00 | 0.23 | 0.06 | 65 | 1015.1 |
| 20260831143934 | 66 | 310 | 6.0 | 12.0 | 0.00 | 0.23 | 0.06 | 64 | 1015.0 |
| 20260831143430 | 65 | 300 | 2.0 | 12.0 | 0.00 | 0.23 | 0.06 | 65 | 1014.9 |
| 20260831142931 | 66 | 277 | 3.0 | 8.0 | 0.00 | 0.23 | 0.06 | 63 | 1014.9 |
| 20260831142430 | 66 | 227 | 4.0 | 9.0 | 0.00 | 0.23 | 0.06 | 64 | 1015.1 |
| 20260831141927 | 66 | 313 | 6.0 | 9.0 | 0.00 | 0.23 | 0.06 | 65 | 1015.1 |
| 20260831141806 | 66 | 288 | 4.0 | 7.0 | 0.00 | 0.23 | 0.06 | 64 | 1015.0 |
| 20260831141313 | 66 | 320 | 4.0 | 7.0 | 0.00 | 0.23 | 0.06 | 65 | 1014.9 |
| 20260831140421 | 65 | 305 | 6.0 | 7.0 | 0.00 | 0.23 | 0.06 | 65 | 1015.0 |
| 20260831140325 | 65 | 305 | 2.0 | 6.0 | 0.00 | 0.23 | 0.06 | 64 | 1014.7 |
| 20260831135417 | 65 | 320 | 2.0 | 7.0 | 0.00 | 0.23 | 0.06 | 67 | 1014.8 |
| 20260831134907 | 65 | 304 | 6.0 | 7.0 | 0.00 | 0.23 | 0.06 | 69 | 1014.8 |
| 20260831134402 | 64 | 310 | 3.0 | 9.0 | 0.00 | 0.23 | 0.06 | 67 | 1014.8 |
| 20260831133858 | 64 | 308 | 4.0 | 9.0 | 0.00 | 0.23 | 0.06 | 68 | 1014.8 |
| 20260831133353 | 64 | 293 | 6.0 | 9.0 | 0.00 | 0.23 | 0.06 | 71 | 1014.9 |
| 20260831133257 | 63 | 311 | 8.0 | 9.0 | 0.00 | 0.23 | 0.06 | 71 | 1014.9 |
| 20260831132345 | 63 | 299 | 3.0 | 8.0 | 0.00 | 0.23 | 0.06 | 73 | 1014.7 |
| 20260831131845 | 63 | 278 | 3.0 | 6.0 | 0.00 | 0.23 | 0.06 | 74 | 1014.8 |
| 20260831131344 | 62 | 276 | 4.0 | 8.0 | 0.00 | 0.23 | 0.06 | 76 | 1014.8 |
| 20260831130843 | 62 | 305 | 5.0 | 11.0 | 0.00 | 0.23 | 0.06 | 74 | 1014.9 |
| 20260831130343 | 62 | 309 | 6.0 | 11.0 | 0.00 | 0.23 | 0.06 | 74 | 1014.9 |
| 20260831125853 | 62 | 272 | 5.0 | 9.0 | 0.00 | 0.23 | 0.06 | 74 | 1014.7 |
| 20260831125333 | 62 | 306 | 4.0 | 9.0 | 0.00 | 0.23 | 0.06 | 75 | 1014.7 |
| 20260831124830 | 61 | 305 | 4.0 | 10.0 | 0.00 | 0.23 | 0.06 | 76 | 1014.7 |
| 20260831124712 | 61 | 308 | 5.0 | 10.0 | 0.00 | 0.23 | 0.06 | 76 | 1014.8 |
| 20260831123827 | 61 | 290 | 4.0 | 8.0 | 0.00 | 0.23 | 0.06 | 79 | 1014.6 |
| 20260831123323 | 61 | 318 | 3.0 | 10.0 | 0.00 | 0.23 | 0.06 | 79 | 1014.7 |
| 20260831122825 | 61 | 311 | 5.0 | 10.0 | 0.00 | 0.23 | 0.06 | 77 | 1014.7 |
| 20260831122321 | 61 | 267 | 3.0 | 10.0 | 0.00 | 0.23 | 0.06 | 81 | 1014.8 |
| 20260831121824 | 61 | 298 | 7.0 | 8.0 | 0.00 | 0.23 | 0.06 | 78 | 1014.4 |
| 20260831121324 | 60 | 311 | 2.0 | 8.0 | 0.00 | 0.23 | 0.06 | 82 | 1014.5 |
| 20260831120820 | 60 | 318 | 4.0 | 8.0 | 0.00 | 0.23 | 0.06 | 79 | 1014.6 |
| 20260831120313 | 60 | 295 | 3.0 | 7.0 | 0.00 | 0.23 | 0.06 | 81 | 1014.6 |
| 20260831115823 | 60 | 296 | 6.0 | 7.0 | 0.00 | 0.23 | 0.06 | 81 | 1014.5 |
| 20260831115307 | 60 | 272 | 4.0 | 5.0 | 0.00 | 0.23 | 0.06 | 81 | 1014.3 |
| 20260831114821 | 60 | 240 | 3.0 | 5.0 | 0.00 | 0.23 | 0.06 | 84 | 1014.3 |
| 20260831114309 | 60 | 266 | 4.0 | 5.0 | 0.00 | 0.23 | 0.06 | 83 | 1014.5 |
| 20260831113753 | 60 | 234 | 2.0 | 5.0 | 0.00 | 0.23 | 0.06 | 84 | 1014.4 |
| 20260831113656 | 60 | 220 | 2.0 | 5.0 | 0.00 | 0.23 | 0.06 | 83 | 1014.3 |
| 20260831113131 | 59 | 230 | 2.0 | 5.0 | 0.00 | 0.23 | 0.06 | 85 | 1014.3 |
| 20260831112641 | 59 | 316 | 3.0 | 5.0 | 0.00 | 0.23 | 0.06 | 85 | 1014.4 |
| 20260831111751 | 58 | 322 | 2.0 | 5.0 | 0.00 | 0.23 | 0.06 | 87 | 1014.1 |
| 20260831111257 | 58 | 317 | 2.0 | 6.0 | 0.00 | 0.23 | 0.06 | 87 | 1014.2 |
| 20260831110744 | 58 | 314 | 4.0 | 6.0 | 0.00 | 0.23 | 0.06 | 88 | 1014.4 |
| 20260831110622 | 58 | 39 | 0.0 | 6.0 | 0.00 | 0.23 | 0.06 | 91 | 1014.3 |
| 20260831105716 | 57 | 223 | 5.0 | 6.0 | 0.00 | 0.23 | 0.06 | 91 | 1014.2 |
| 20260831105216 | 57 | 271 | 3.0 | 6.0 | 0.00 | 0.23 | 0.06 | 92 | 1014.1 |
| 20260831104716 | 57 | 253 | 3.0 | 7.0 | 0.00 | 0.23 | 0.06 | 91 | 1014.0 |
| 20260831104213 | 57 | 279 | 2.0 | 7.0 | 0.00 | 0.23 | 0.06 | 93 | 1014.0 |
| 20260831103713 | 56 | 225 | 3.0 | 6.0 | 0.00 | 0.23 | 0.06 | 95 | 1013.7 |
| 20260831103213 | 56 | 247 | 2.0 | 3.0 | 0.00 | 0.23 | 0.06 | 96 | 1013.7 |
| 20260831102714 | 55 | 329 | 1.0 | 2.0 | 0.00 | 0.23 | 0.06 | 97 | 1013.8 |
| 20260831102651 | 55 | 236 | 1.0 | 2.0 | 0.00 | 0.23 | 0.06 | 96 | 1013.7 |
| 20260831102106 | 55 | 19 | 0.0 | 3.0 | 0.00 | 0.23 | 0.06 | 96 | 1013.7 |
| 20260831101211 | 55 | 129 | 0.0 | 3.0 | 0.00 | 0.23 | 0.06 | 96 | 1013.5 |
| 20260831100715 | 55 | 336 | 1.0 | 3.0 | 0.00 | 0.23 | 0.06 | 96 | 1013.4 |
| 20260831100212 | 55 | 92 | 1.0 | 3.0 | 0.00 | 0.23 | 0.06 | 96 | 1013.6 |
| 20260831095702 | 55 | 282 | 1.0 | 2.0 | 0.00 | 0.23 | 0.06 | 96 | 1013.3 |
| 20260831095625 | 55 | 178 | 0.0 | 3.0 | 0.00 | 0.23 | 0.06 | 96 | 1013.2 |
| 20260831094659 | 55 | 194 | 1.0 | 3.0 | 0.00 | 0.23 | 0.06 | 95 | 1013.1 |
| 20260831094154 | 56 | 153 | 0.0 | 2.0 | 0.00 | 0.23 | 0.06 | 95 | 1013.0 |
| 20260831093654 | 56 | 108 | 1.0 | 2.0 | 0.00 | 0.23 | 0.06 | 95 | 1013.1 |
| 20260831093142 | 56 | 308 | 0.0 | 2.0 | 0.00 | 0.23 | 0.06 | 96 | 1013.0 |
| 20260831092632 | 56 | 128 | 0.0 | 2.0 | 0.00 | 0.23 | 0.06 | 96 | 1013.0 |
| 20260831092318 | 56 | 308 | 0.0 | 2.0 | 0.00 | 0.23 | 0.06 | 95 | 1012.7 |
| 20260831091125 | 57 | 169 | 0.0 | 2.0 | 0.00 | 0.23 | 0.06 | 95 | 1012.9 |
| 20260831091030 | 57 | 104 | 0.0 | 2.0 | 0.00 | 0.23 | 0.06 | 95 | 1012.9 |
| 20260831090118 | 57 | 180 | 0.0 | 3.0 | 0.00 | 0.23 | 0.06 | 96 | 1012.8 |
| 20260831085618 | 58 | 173 | 1.0 | 4.0 | 0.00 | 0.23 | 0.06 | 96 | 1012.6 |
| 20260831085122 | 58 | 250 | 0.0 | 4.0 | 0.00 | 0.23 | 0.06 | 96 | 1012.5 |
| 20260831085100 | 58 | 203 | 1.0 | 4.0 | 0.00 | 0.23 | 0.06 | 96 | 1012.3 |
| 20260831084114 | 58 | 290 | 0.0 | 5.0 | 0.00 | 0.23 | 0.06 | 97 | 1012.5 |
| 20260831083612 | 58 | 6 | 1.0 | 5.0 | 0.00 | 0.23 | 0.06 | 97 | 1012.3 |
| 20260831083113 | 58 | 308 | 1.0 | 5.0 | 0.00 | 0.23 | 0.06 | 97 | 1012.4 |
| 20260831082603 | 58 | 327 | 0.0 | 3.0 | 0.00 | 0.23 | 0.06 | 97 | 1012.4 |
| 20260831082233 | 58 | 241 | 0.0 | 2.0 | 0.00 | 0.23 | 0.06 | 97 | 1012.3 |
| 20260831081102 | 58 | 224 | 2.0 | 4.0 | 0.00 | 0.23 | 0.06 | 97 | 1012.3 |
| 20260831080954 | 58 | 253 | 0.0 | 4.0 | 0.00 | 0.23 | 0.06 | 97 | 1012.4 |
| 20260831080517 | 59 | 258 | 0.0 | 4.0 | 0.00 | 0.23 | 0.06 | 97 | 1012.2 |
| 20260831075601 | 59 | 261 | 1.0 | 4.0 | 0.00 | 0.23 | 0.06 | 97 | 1012.1 |
| 20260831075524 | 59 | 294 | 2.0 | 5.0 | 0.00 | 0.23 | 0.06 | 97 | 1012.2 |
| 20260831074555 | 59 | 258 | 2.0 | 6.0 | 0.00 | 0.23 | 0.06 | 97 | 1012.3 |
| 20260831074100 | 59 | 221 | 4.0 | 6.0 | 0.00 | 0.23 | 0.06 | 97 | 1012.2 |
| 20260831073549 | 59 | 238 | 2.0 | 3.0 | 0.00 | 0.23 | 0.06 | 97 | 1012.1 |
| 20260831073042 | 59 | 287 | 2.0 | 3.0 | 0.00 | 0.23 | 0.06 | 96 | 1012.0 |
| 20260831072544 | 59 | 267 | 2.0 | 3.0 | 0.01 | 0.23 | 0.06 | 96 | 1011.8 |
| 20260831072452 | 59 | 232 | 1.0 | 3.0 | 0.01 | 0.23 | 0.06 | 96 | 1011.9 |
| 20260831071535 | 60 | 281 | 1.0 | 3.0 | 0.01 | 0.23 | 0.06 | 96 | 1011.7 |
| 20260831071032 | 60 | 290 | 1.0 | 5.0 | 0.01 | 0.23 | 0.06 | 96 | 1011.9 |
| 20260831070531 | 60 | 299 | 2.0 | 5.0 | 0.01 | 0.23 | 0.06 | 96 | 1011.7 |
| 20260831070457 | 60 | 168 | 2.0 | 4.0 | 0.01 | 0.23 | 0.06 | 97 | 1011.9 |
| 20260831065510 | 60 | 269 | 0.0 | 3.0 | 0.01 | 0.23 | 0.06 | 97 | 1011.9 |
| 20260831065011 | 60 | 19 | 0.0 | 3.0 | 0.01 | 0.23 | 0.06 | 97 | 1011.8 |
| 20260831064917 | 60 | 290 | 0.0 | 3.0 | 0.01 | 0.23 | 0.06 | 97 | 1011.8 |
| 20260831064007 | 60 | 157 | 0.0 | 4.0 | 0.01 | 0.23 | 0.06 | 97 | 1011.6 |
| 20260831063926 | 60 | 303 | 1.0 | 4.0 | 0.01 | 0.23 | 0.06 | 97 | 1011.7 |
| 20260831063003 | 60 | 123 | 0.0 | 4.0 | 0.01 | 0.23 | 0.06 | 97 | 1011.7 |
| 20260831062458 | 60 | 154 | 2.0 | 6.0 | 0.00 | 0.22 | 0.05 | 97 | 1011.5 |
| 20260831061956 | 60 | 315 | 2.0 | 6.0 | 0.00 | 0.22 | 0.05 | 97 | 1011.4 |
| 20260831061452 | 60 | 278 | 3.0 | 4.0 | 0.00 | 0.22 | 0.05 | 97 | 1011.4 |
| 20260831061354 | 60 | 314 | 3.0 | 4.0 | 0.01 | 0.22 | 0.05 | 97 | 1011.6 |
| 20260831060450 | 60 | 285 | 0.0 | 5.0 | 0.01 | 0.22 | 0.05 | 97 | 1011.5 |
| 20260831055949 | 60 | 309 | 2.0 | 5.0 | 0.01 | 0.22 | 0.05 | 97 | 1011.5 |
| 20260831055856 | 60 | 240 | 2.0 | 5.0 | 0.01 | 0.22 | 0.05 | 97 | 1011.3 |
| 20260831054947 | 60 | 244 | 0.0 | 6.0 | 0.01 | 0.22 | 0.05 | 97 | 1011.3 |
| 20260831054437 | 60 | 276 | 1.0 | 8.0 | 0.02 | 0.22 | 0.05 | 97 | 1011.6 |
| 20260831053939 | 60 | 214 | 3.0 | 8.0 | 0.02 | 0.22 | 0.05 | 97 | 1011.5 |
| 20260831053434 | 60 | 234 | 3.0 | 6.0 | 0.02 | 0.22 | 0.05 | 96 | 1011.2 |
| 20260831052933 | 60 | 217 | 2.0 | 8.0 | 0.02 | 0.22 | 0.05 | 96 | 1011.4 |
| 20260831052820 | 60 | 244 | 4.0 | 8.0 | 0.02 | 0.22 | 0.05 | 96 | 1011.6 |
| 20260831051929 | 60 | 278 | 3.0 | 7.0 | 0.02 | 0.22 | 0.05 | 96 | 1011.5 |
| 20260831051831 | 60 | 242 | 2.0 | 7.0 | 0.02 | 0.22 | 0.05 | 96 | 1011.4 |
| 20260831050926 | 60 | 263 | 2.0 | 9.0 | 0.01 | 0.20 | 0.03 | 95 | 1011.7 |
| 20260831050848 | 60 | 263 | 2.0 | 11.0 | 0.01 | 0.20 | 0.03 | 95 | 1011.7 |
| 20260831050358 | 60 | 258 | 4.0 | 11.0 | 0.01 | 0.20 | 0.03 | 95 | 1011.7 |
| 20260831045413 | 60 | 217 | 7.0 | 9.0 | 0.01 | 0.20 | 0.03 | 96 | 1011.8 |
| 20260831044909 | 60 | 232 | 7.0 | 9.0 | 0.01 | 0.20 | 0.03 | 96 | 1011.8 |
| 20260831044550 | 60 | 233 | 5.0 | 8.0 | 0.00 | 0.19 | 0.02 | 96 | 1011.5 |
| 20260831043904 | 60 | 222 | 5.0 | 7.0 | 0.00 | 0.19 | 0.02 | 96 | 1011.5 |
| 20260831043400 | 60 | 236 | 4.0 | 6.0 | 0.00 | 0.19 | 0.02 | 96 | 1011.5 |
| 20260831042900 | 60 | 225 | 3.0 | 4.0 | 0.01 | 0.19 | 0.02 | 96 | 1011.5 |
| 20260831042355 | 60 | 281 | 0.0 | 2.0 | 0.01 | 0.19 | 0.02 | 95 | 1011.4 |
| 20260831041855 | 60 | 253 | 0.0 | 4.0 | 0.02 | 0.19 | 0.02 | 95 | 1011.0 |
| 20260831041810 | 60 | 271 | 1.0 | 5.0 | 0.02 | 0.19 | 0.02 | 95 | 1011.0 |
| 20260831040906 | 60 | 297 | 1.0 | 5.0 | 0.02 | 0.19 | 0.02 | 95 | 1010.9 |
| 20260831040757 | 60 | 258 | 1.0 | 5.0 | 0.02 | 0.19 | 0.02 | 96 | 1011.1 |
| 20260831035848 | 60 | 312 | 2.0 | 5.0 | 0.02 | 0.19 | 0.02 | 96 | 1011.3 |
| 20260831035759 | 60 | 64 | 0.0 | 5.0 | 0.02 | 0.19 | 0.02 | 96 | 1011.1 |
| 20260831034841 | 60 | 98 | 2.0 | 6.0 | 0.02 | 0.19 | 0.02 | 96 | 1011.6 |
| 20260831034807 | 60 | 215 | 4.0 | 6.0 | 0.02 | 0.19 | 0.02 | 95 | 1011.6 |
| 20260831033837 | 60 | 232 | 1.0 | 6.0 | 0.04 | 0.19 | 0.02 | 95 | 1011.6 |
| 20260831033736 | 60 | 36 | 0.0 | 6.0 | 0.04 | 0.19 | 0.02 | 95 | 1011.6 |
| 20260831032835 | 61 | 211 | 4.0 | 6.0 | 0.04 | 0.18 | 0.01 | 95 | 1011.5 |
| 20260831032334 | 61 | 346 | 0.0 | 6.0 | 0.05 | 0.18 | 0.01 | 95 | 1011.7 |
| 20260831031832 | 61 | 252 | 2.0 | 6.0 | 0.04 | 0.17 | 0.00 | 95 | 1012.0 |
| 20260831031330 | 61 | 263 | 4.0 | 8.0 | 0.05 | 0.17 | 0.00 | 96 | 1011.9 |
| 20260831030829 | 61 | 275 | 6.0 | 9.0 | 0.05 | 0.17 | 0.00 | 96 | 1012.2 |
| 20260831030331 | 62 | 249 | 4.0 | 9.0 | 0.05 | 0.17 | 0.00 | 96 | 1012.0 |
| 20260831025830 | 62 | 230 | 3.0 | 9.0 | 0.05 | 0.17 | 0.17 | 96 | 1012.0 |
| 20260831025330 | 62 | 251 | 5.0 | 9.0 | 0.05 | 0.17 | 0.17 | 96 | 1011.9 |
| 20260831024829 | 62 | 249 | 5.0 | 10.0 | 0.06 | 0.17 | 0.17 | 96 | 1011.9 |
| 20260831024326 | 62 | 240 | 5.0 | 10.0 | 0.06 | 0.17 | 0.17 | 96 | 1011.6 |
| 20260831023826 | 62 | 231 | 4.0 | 10.0 | 0.05 | 0.16 | 0.16 | 96 | 1011.7 |
| 20260831023326 | 62 | 240 | 7.0 | 10.0 | 0.05 | 0.16 | 0.16 | 95 | 1012.0 |
| 20260831022820 | 62 | 303 | 4.0 | 11.0 | 0.03 | 0.14 | 0.14 | 96 | 1011.9 |
| 20260831022318 | 62 | 231 | 2.0 | 11.0 | 0.02 | 0.13 | 0.13 | 96 | 1011.6 |
| 20260831022241 | 62 | 251 | 6.0 | 9.0 | 0.02 | 0.13 | 0.13 | 96 | 1011.7 |
| 20260831021313 | 62 | 326 | 3.0 | 8.0 | 0.01 | 0.12 | 0.12 | 96 | 1011.5 |
| 20260831020803 | 61 | 220 | 4.0 | 7.0 | 0.01 | 0.12 | 0.12 | 96 | 1011.7 |
| 20260831020259 | 61 | 247 | 4.0 | 7.0 | 0.01 | 0.12 | 0.12 | 96 | 1011.8 |
| 20260831015749 | 61 | 256 | 2.0 | 7.0 | 0.01 | 0.12 | 0.12 | 96 | 1011.9 |
| 20260831015249 | 61 | 236 | 2.0 | 6.0 | 0.01 | 0.12 | 0.12 | 96 | 1011.8 |
| 20260831014745 | 61 | 267 | 5.0 | 6.0 | 0.00 | 0.11 | 0.11 | 96 | 1011.8 |
| 20260831014240 | 61 | 324 | 1.0 | 4.0 | 0.01 | 0.11 | 0.11 | 96 | 1011.5 |
| 20260831013739 | 61 | 268 | 2.0 | 3.0 | 0.01 | 0.11 | 0.11 | 96 | 1011.4 |
| 20260831013235 | 61 | 318 | 2.0 | 2.0 | 0.01 | 0.11 | 0.11 | 96 | 1011.0 |
| 20260831013129 | 61 | 290 | 0.0 | 3.0 | 0.01 | 0.11 | 0.11 | 96 | 1011.0 |
| 20260831012231 | 61 | 318 | 2.0 | 3.0 | 0.09 | 0.11 | 0.11 | 96 | 1011.2 |
| 20260831011732 | 61 | 348 | 0.0 | 3.0 | 0.09 | 0.11 | 0.11 | 96 | 1011.0 |
| 20260831011231 | 61 | 300 | 3.0 | 3.0 | 0.09 | 0.11 | 0.11 | 95 | 1011.3 |
| 20260831010730 | 61 | 290 | 0.0 | 6.0 | 0.09 | 0.11 | 0.11 | 95 | 1011.3 |
| 20260831010224 | 61 | 59 | 1.0 | 6.0 | 0.09 | 0.11 | 0.11 | 95 | 1011.4 |
| 20260831005722 | 61 | 273 | 1.0 | 5.0 | 0.09 | 0.11 | 0.11 | 95 | 1011.6 |
| 20260831005221 | 61 | 275 | 2.0 | 2.0 | 0.09 | 0.11 | 0.11 | 94 | 1011.4 |
| 20260831004717 | 62 | 216 | 1.0 | 3.0 | 0.09 | 0.11 | 0.11 | 94 | 1011.5 |
| 20260831004215 | 62 | 260 | 2.0 | 3.0 | 0.08 | 0.09 | 0.09 | 94 | 1011.6 |
| 20260831003711 | 62 | 265 | 1.0 | 3.0 | 0.08 | 0.09 | 0.09 | 93 | 1011.5 |
| 20260831003557 | 62 | 101 | 1.0 | 5.0 | 0.09 | 0.09 | 0.09 | 92 | 1011.6 |
| 20260831003034 | 62 | 199 | 0.0 | 9.0 | 0.09 | 0.09 | 0.09 | 92 | 1011.8 |
| 20260831002206 | 62 | 289 | 2.0 | 9.0 | 0.01 | 0.01 | 0.01 | 92 | 1012.1 |
| 20260831001706 | 62 | 305 | 4.0 | 8.0 | 0.01 | 0.01 | 0.01 | 91 | 1011.9 |
| 20260831001608 | 62 | 228 | 2.0 | 2.0 | 0.01 | 0.01 | 0.01 | 90 | 1011.4 |
| 20260831000702 | 62 | 265 | 1.0 | 3.0 | 0.01 | 0.01 | 0.01 | 90 | 1011.3 |
| 20260831000153 | 63 | 256 | 2.0 | 3.0 | 0.01 | 0.01 | 0.01 | 89 | 1011.2 |
| 20260830235655 | 63 | 208 | 2.0 | 3.0 | 0.01 | 0.01 | 0.01 | 89 | 1011.4 |
| 20260830235149 | 63 | 192 | 2.0 | 3.0 | 0.01 | 0.01 | 0.01 | 88 | 1011.6 |
| 20260830234645 | 63 | 143 | 0.0 | 4.0 | 0.01 | 0.01 | 0.01 | 87 | 1011.4 |
| 20260830234142 | 64 | 271 | 0.0 | 7.0 | 0.01 | 0.01 | 0.01 | 86 | 1011.7 |
| 20260830233636 | 64 | 276 | 3.0 | 9.0 | 0.01 | 0.01 | 0.01 | 84 | 1011.9 |
| 20260830233134 | 65 | 236 | 2.0 | 16.0 | 0.00 | 0.00 | 0.00 | 83 | 1012.0 |
| 20260830232633 | 65 | 280 | 4.0 | 16.0 | 0.00 | 0.00 | 0.00 | 81 | 1012.3 |